createdAt,value
2022-08-18T00:04:36.438Z,90.80
2022-08-18T00:09:37.112Z,90.80
2022-08-18T00:14:36.525Z,91.10
2022-08-18T00:19:45.327Z,91.20
2022-08-18T00:24:47.889Z,91.60
2022-08-18T00:29:48.348Z,91.60
2022-08-18T00:34:46.404Z,92.10
2022-08-18T00:39:47.796Z,92.30
2022-08-18T00:44:46.024Z,92.50
2022-08-18T00:49:47.539Z,93.40
2022-08-18T00:54:48.087Z,93.30
2022-08-18T00:59:51.922Z,93.60
2022-08-18T01:04:57.010Z,93.70
2022-08-18T01:09:54.999Z,94.20
2022-08-18T01:14:54.224Z,94.60
2022-08-18T01:20:10.581Z,94.80
2022-08-18T01:25:28.268Z,95.30
2022-08-18T01:30:26.595Z,95.70
2022-08-18T01:35:27.024Z,96.20
2022-08-18T01:41:21.867Z,96.80
2022-08-18T01:45:45.114Z,97.20
2022-08-18T01:50:44.253Z,97.60
2022-08-18T01:55:45.680Z,97.80
2022-08-18T02:00:43.647Z,97.90
2022-08-18T02:05:44.997Z,98.30
2022-08-18T02:10:46.935Z,98.50
2022-08-18T02:15:44.904Z,99.00
2022-08-18T02:20:44.785Z,99.10
2022-08-18T02:25:43.859Z,99.80
2022-08-18T02:30:43.977Z,99.90
2022-08-18T02:35:43.922Z,99.90
2022-08-18T02:40:42.452Z,99.90
2022-08-18T02:45:40.779Z,99.90
2022-08-18T02:50:46.023Z,99.90
2022-08-18T02:55:44.028Z,99.90
2022-08-18T03:00:42.888Z,99.90
2022-08-18T03:05:42.214Z,99.90
2022-08-18T03:10:40.263Z,99.90
2022-08-18T03:15:38.266Z,99.90
2022-08-18T03:20:37.102Z,99.90
2022-08-18T03:25:36.942Z,99.90
2022-08-18T03:30:34.954Z,99.90
2022-08-18T03:35:34.573Z,99.90
2022-08-18T03:40:32.586Z,99.90
2022-08-18T03:45:31.989Z,99.90
2022-08-18T03:50:32.218Z,99.90
2022-08-18T03:55:30.619Z,99.90
2022-08-18T04:00:28.812Z,99.90
2022-08-18T04:05:28.778Z,99.90
2022-08-18T04:10:26.783Z,99.90
2022-08-18T04:15:24.874Z,99.90
2022-08-18T04:20:24.350Z,99.90
2022-08-18T04:25:23.770Z,99.90
2022-08-18T04:30:22.435Z,99.90
2022-08-18T04:35:22.266Z,99.90
2022-08-18T04:40:24.977Z,99.90
2022-08-18T04:45:24.695Z,99.90
2022-08-18T04:50:24.451Z,99.90
2022-08-18T04:55:29.169Z,99.90
2022-08-18T05:00:28.515Z,99.90
2022-08-18T05:05:27.530Z,99.90
2022-08-18T05:10:25.535Z,99.90
2022-08-18T05:15:23.529Z,99.90
2022-08-18T05:20:23.176Z,99.90
2022-08-18T05:25:21.304Z,99.90
2022-08-18T05:30:19.377Z,99.90
2022-08-18T05:35:26.333Z,99.90
2022-08-18T05:40:25.505Z,99.90
2022-08-18T05:45:24.286Z,99.90
2022-08-18T05:50:23.998Z,99.90
2022-08-18T05:55:48.050Z,99.90
2022-08-18T06:00:58.816Z,99.90
2022-08-18T06:06:02.258Z,99.90
2022-08-18T06:11:00.295Z,99.90
2022-08-18T06:16:06.951Z,99.90
2022-08-18T06:21:17.478Z,99.90
2022-08-18T06:26:22.119Z,99.90
2022-08-18T06:31:29.449Z,99.90
2022-08-18T06:36:38.703Z,99.90
2022-08-18T06:41:42.147Z,99.90
2022-08-18T06:46:48.046Z,99.90
2022-08-18T06:51:47.320Z,99.90
2022-08-18T06:56:50.045Z,99.90
2022-08-18T07:01:51.600Z,99.90
2022-08-18T07:06:50.953Z,99.90
2022-08-18T07:12:06.000Z,99.90
2022-08-18T07:17:12.013Z,99.90
2022-08-18T07:22:13.466Z,99.90
2022-08-18T07:27:15.354Z,99.90
2022-08-18T07:32:21.338Z,99.90
2022-08-18T07:37:28.912Z,99.90
2022-08-18T07:42:56.869Z,99.90
2022-08-18T07:48:07.165Z,99.90
2022-08-18T07:53:26.034Z,99.90
2022-08-18T07:58:33.775Z,99.90
2022-08-18T08:03:41.771Z,99.90
2022-08-18T08:08:45.167Z,99.90
2022-08-18T08:13:59.789Z,99.90
2022-08-18T08:19:12.566Z,99.90
2022-08-18T08:24:20.971Z,99.90
2022-08-18T08:29:31.327Z,99.90
2022-08-18T08:34:36.323Z,99.90
2022-08-18T08:39:40.771Z,99.90
2022-08-18T08:44:58.434Z,99.90
2022-08-18T08:50:02.121Z,99.90
2022-08-18T08:55:06.577Z,99.90
2022-08-18T09:00:10.971Z,99.90
2022-08-18T09:05:13.727Z,99.90
2022-08-18T09:10:48.385Z,99.90
2022-08-18T09:16:13.835Z,99.90
2022-08-18T09:21:26.024Z,99.90
2022-08-18T09:26:40.403Z,99.90
2022-08-18T09:31:38.608Z,98.60
2022-08-18T09:36:55.126Z,98.20
2022-08-18T09:41:59.555Z,94.10
2022-08-18T09:47:00.647Z,90.60
2022-08-18T09:52:02.245Z,92.00
2022-08-18T09:57:21.763Z,89.70
2022-08-18T10:02:59.722Z,91.50
2022-08-18T10:08:36.980Z,90.50
2022-08-18T10:13:51.113Z,83.60
2022-08-18T10:19:06.564Z,83.20
2022-08-18T10:24:35.091Z,82.50
2022-08-18T10:29:57.300Z,82.70
2022-08-18T10:34:55.467Z,81.00
2022-08-18T10:39:58.081Z,80.00
2022-08-18T10:45:08.849Z,78.50
2022-08-18T10:50:19.647Z,75.50
2022-08-18T10:55:48.599Z,72.60
2022-08-18T11:01:10.042Z,75.00
2022-08-18T11:06:14.686Z,73.00
2022-08-18T11:11:37.458Z,71.60
2022-08-18T11:16:52.002Z,70.70
2022-08-18T11:21:53.693Z,66.90
2022-08-18T11:26:54.755Z,65.40
2022-08-18T11:31:59.449Z,66.10
2022-08-18T11:37:01.834Z,64.30
2022-08-18T11:42:00.418Z,62.30
2022-08-18T11:47:14.872Z,59.70
2022-08-18T11:52:29.273Z,60.40
2022-08-18T11:57:46.892Z,59.40
2022-08-18T12:02:48.736Z,59.00
2022-08-18T12:07:51.091Z,57.60
2022-08-18T12:12:57.630Z,57.00
2022-08-18T12:17:58.513Z,58.10
2022-08-18T12:22:58.507Z,58.90
2022-08-18T12:27:56.460Z,59.60
2022-08-18T12:32:56.310Z,58.80
2022-08-18T12:38:13.289Z,58.10
2022-08-18T12:43:13.127Z,58.20
2022-08-18T12:48:11.939Z,56.40
2022-08-18T12:53:11.933Z,59.00
2022-08-18T12:58:10.100Z,57.80
2022-08-18T13:03:08.923Z,58.10
2022-08-18T13:08:12.423Z,59.50
2022-08-18T13:13:12.080Z,59.90
2022-08-18T13:18:14.298Z,59.00
2022-08-18T13:23:12.639Z,58.50
2022-08-18T13:28:12.060Z,59.50
2022-08-18T13:33:34.908Z,60.10
2022-08-18T13:38:29.759Z,58.60
2022-08-18T13:43:34.403Z,58.90
2022-08-18T13:48:32.662Z,57.90
2022-08-18T13:53:32.117Z,56.50
2022-08-18T13:58:31.474Z,56.70
2022-08-18T14:03:46.973Z,55.10
2022-08-18T14:08:45.792Z,56.20
2022-08-18T14:13:45.434Z,56.60
2022-08-18T14:18:43.352Z,57.20
2022-08-18T14:24:00.561Z,58.50
2022-08-18T14:29:00.691Z,57.30
2022-08-18T14:34:04.426Z,57.50
2022-08-18T14:39:03.211Z,58.70
2022-08-18T14:44:13.261Z,58.30
2022-08-18T14:49:12.236Z,59.30
2022-08-18T14:54:11.273Z,59.60
2022-08-18T14:59:17.413Z,58.90
2022-08-18T15:04:19.148Z,58.80
2022-08-18T15:09:17.920Z,59.60
2022-08-18T15:14:17.636Z,61.30
2022-08-18T15:19:57.517Z,61.40
2022-08-18T15:24:52.888Z,61.10
2022-08-18T15:29:52.497Z,61.70
2022-08-18T15:34:51.897Z,63.10
2022-08-18T15:39:51.804Z,65.20
2022-08-18T15:44:55.389Z,65.60
2022-08-18T15:49:55.149Z,65.60
2022-08-18T15:54:55.680Z,65.40
2022-08-18T15:59:58.183Z,65.90
2022-08-18T16:04:56.539Z,65.20
2022-08-18T16:09:54.854Z,64.50
2022-08-18T16:14:53.150Z,65.50
2022-08-18T16:19:52.544Z,64.60
2022-08-18T16:24:55.064Z,64.10
2022-08-18T16:29:53.700Z,64.70
2022-08-18T16:34:53.494Z,63.10
2022-08-18T16:39:51.676Z,63.50
2022-08-18T16:44:49.723Z,67.80
2022-08-18T16:49:48.703Z,69.90
2022-08-18T16:54:48.809Z,73.10
2022-08-18T17:00:13.059Z,74.90
2022-08-18T17:05:12.286Z,77.80
2022-08-18T17:10:12.539Z,78.80
2022-08-18T17:15:10.785Z,80.20
2022-08-18T17:20:11.123Z,82.60
2022-08-18T17:25:13.139Z,84.30
2022-08-18T17:30:15.989Z,86.80
2022-08-18T17:35:17.707Z,88.60
2022-08-18T17:40:22.417Z,89.90
2022-08-18T17:45:22.249Z,91.50
2022-08-18T17:50:45.471Z,92.40
2022-08-18T17:55:50.658Z,93.20
2022-08-18T18:00:48.590Z,94.50
2022-08-18T18:05:52.746Z,95.40
2022-08-18T18:11:07.641Z,95.90
2022-08-18T18:16:25.714Z,97.20
2022-08-18T18:21:53.452Z,97.40
2022-08-18T18:26:47.973Z,98.40
2022-08-18T18:31:48.691Z,99.00
2022-08-18T18:36:48.707Z,99.70
2022-08-18T18:41:49.115Z,99.90
2022-08-18T18:46:51.074Z,99.90
2022-08-18T18:52:02.197Z,99.90
2022-08-18T18:57:03.508Z,99.90
2022-08-18T19:02:33.191Z,99.90
2022-08-18T19:07:27.508Z,99.90
2022-08-18T19:12:30.614Z,99.90
2022-08-18T19:17:37.184Z,99.90
2022-08-18T19:22:42.781Z,99.90
2022-08-18T19:27:54.518Z,99.90
2022-08-18T19:32:55.121Z,99.90
2022-08-18T19:38:07.783Z,99.90
2022-08-18T19:43:12.543Z,99.90
2022-08-18T19:48:18.387Z,99.90
2022-08-18T19:53:32.937Z,99.90
2022-08-18T19:59:15.552Z,99.90
2022-08-18T20:04:33.515Z,99.90
2022-08-18T20:09:50.881Z,99.90
2022-08-18T20:15:02.591Z,99.90
2022-08-18T20:20:18.159Z,99.90
2022-08-18T20:25:40.513Z,99.90
2022-08-18T20:30:58.382Z,99.90
2022-08-18T20:36:11.389Z,99.90
2022-08-18T20:41:43.960Z,99.90
2022-08-18T20:46:55.944Z,99.90
2022-08-18T20:52:00.466Z,99.90
2022-08-18T20:57:05.965Z,99.90
2022-08-18T21:02:08.437Z,99.90
2022-08-18T21:07:12.976Z,99.90
2022-08-18T21:12:14.615Z,99.90
2022-08-18T21:17:15.422Z,99.90
2022-08-18T21:22:13.883Z,99.90
2022-08-18T21:27:20.525Z,99.90
2022-08-18T21:32:24.302Z,99.90
2022-08-18T21:37:22.562Z,99.90
2022-08-18T21:42:24.499Z,99.90
2022-08-18T21:47:27.125Z,99.90
2022-08-18T21:52:26.774Z,99.90
2022-08-18T21:57:27.492Z,99.90
2022-08-18T22:02:26.848Z,99.90
2022-08-18T22:07:34.257Z,99.90
2022-08-18T22:12:51.723Z,99.90
2022-08-18T22:17:58.232Z,99.90
2022-08-18T22:23:19.258Z,99.90
2022-08-18T22:28:22.510Z,99.90
2022-08-18T22:33:22.934Z,99.90
2022-08-18T22:38:21.032Z,99.90
2022-08-18T22:43:19.278Z,99.90
2022-08-18T22:48:17.292Z,99.90
2022-08-18T22:53:18.453Z,99.90
2022-08-18T22:58:22.094Z,99.90
2022-08-18T23:03:26.294Z,99.90
2022-08-18T23:08:35.740Z,99.90
2022-08-18T23:13:48.087Z,99.90
2022-08-18T23:18:46.036Z,99.90
2022-08-18T23:23:45.376Z,99.90
2022-08-18T23:28:46.160Z,99.90
2022-08-18T23:33:44.200Z,99.90
2022-08-18T23:38:42.471Z,99.90
2022-08-18T23:43:42.435Z,99.90
2022-08-18T23:48:41.884Z,99.90
2022-08-18T23:53:39.937Z,99.90
2022-08-18T23:58:37.899Z,99.90
